createdAt,value
2023-04-16T00:00:53.280Z,8.82
2023-04-16T00:02:58.124Z,8.82
2023-04-16T00:05:03.080Z,8.80
2023-04-16T00:07:07.854Z,8.84
2023-04-16T00:09:12.504Z,8.81
2023-04-16T00:11:17.177Z,8.76
2023-04-16T00:13:26.298Z,8.77
2023-04-16T00:15:31.042Z,8.71
2023-04-16T00:17:36.091Z,8.78
2023-04-16T00:19:41.396Z,8.76
2023-04-16T00:21:46.129Z,8.79
2023-04-16T00:23:50.914Z,8.74
2023-04-16T00:25:57.396Z,8.72
2023-04-16T00:28:03.243Z,8.73
2023-04-16T00:30:11.266Z,8.70
2023-04-16T00:32:16.514Z,8.67
2023-04-16T00:34:21.241Z,8.71
2023-04-16T00:36:26.171Z,8.74
2023-04-16T00:38:32.775Z,8.69
2023-04-16T00:40:37.550Z,8.74
2023-04-16T00:42:42.282Z,8.79
2023-04-16T00:44:47.943Z,8.76
2023-04-16T00:46:55.276Z,8.70
2023-04-16T00:49:00.455Z,8.74
2023-04-16T00:51:07.517Z,8.77
2023-04-16T00:53:25.815Z,8.81
2023-04-16T00:55:31.175Z,8.74
2023-04-16T00:57:36.002Z,8.74
2023-04-16T00:59:40.649Z,8.77
2023-04-16T01:01:45.467Z,8.68
2023-04-16T01:03:52.916Z,8.73
2023-04-16T01:05:58.530Z,8.79
2023-04-16T01:08:03.510Z,8.80
2023-04-16T01:10:10.002Z,8.77
2023-04-16T01:12:14.670Z,8.77
2023-04-16T01:14:19.559Z,8.82
2023-04-16T01:16:24.328Z,8.84
2023-04-16T01:18:29.172Z,8.94
2023-04-16T01:20:39.959Z,8.96
2023-04-16T01:22:44.639Z,8.92
2023-04-16T01:24:49.250Z,8.96
2023-04-16T01:26:53.858Z,9.01
2023-04-16T01:28:58.605Z,9.02
2023-04-16T01:31:03.541Z,9.03
2023-04-16T01:33:37.061Z,8.99
2023-04-16T01:35:45.446Z,8.99
2023-04-16T01:37:53.382Z,8.93
2023-04-16T01:39:58.132Z,9.03
2023-04-16T01:42:02.795Z,9.09
2023-04-16T01:44:07.724Z,9.16
2023-04-16T01:46:16.601Z,9.18
2023-04-16T01:48:21.285Z,9.27
2023-04-16T01:50:26.485Z,9.30
2023-04-16T01:52:34.006Z,9.36
2023-04-16T01:54:38.632Z,9.44
2023-04-16T01:56:43.383Z,9.52
2023-04-16T01:58:48.650Z,9.57
2023-04-16T02:00:55.466Z,9.56
2023-04-16T02:03:00.412Z,9.57
2023-04-16T02:05:06.836Z,9.59
2023-04-16T02:07:11.855Z,9.66
2023-04-16T02:09:19.107Z,9.71
2023-04-16T02:11:24.051Z,9.71
2023-04-16T02:13:29.435Z,9.63
2023-04-16T02:15:34.072Z,9.53
2023-04-16T02:17:39.193Z,9.43
2023-04-16T02:19:48.544Z,9.45
2023-04-16T02:21:54.228Z,9.41
2023-04-16T02:23:59.004Z,9.39
2023-04-16T02:26:09.274Z,9.31
2023-04-16T02:28:16.059Z,9.24
2023-04-16T02:30:22.503Z,9.24
2023-04-16T02:32:27.363Z,9.13
2023-04-16T02:34:33.819Z,9.17
2023-04-16T02:36:38.513Z,9.14
2023-04-16T02:38:43.230Z,9.11
2023-04-16T02:40:47.878Z,9.13
2023-04-16T02:42:56.315Z,9.19
2023-04-16T02:45:00.999Z,9.24
2023-04-16T02:47:06.589Z,9.22
2023-04-16T02:49:11.650Z,9.27
2023-04-16T02:51:16.456Z,9.30
2023-04-16T02:53:21.626Z,9.28
2023-04-16T02:55:26.334Z,9.22
2023-04-16T02:57:30.981Z,9.25
2023-04-16T02:59:38.268Z,9.21
2023-04-16T03:01:42.982Z,9.16
2023-04-16T03:03:47.827Z,9.18
2023-04-16T03:05:52.690Z,9.17
2023-04-16T03:07:57.623Z,9.19
2023-04-16T03:10:02.262Z,9.21
2023-04-16T03:12:07.187Z,9.24
2023-04-16T03:14:11.901Z,9.23
2023-04-16T03:16:19.291Z,9.26
2023-04-16T03:18:23.961Z,9.34
2023-04-16T03:20:28.740Z,9.37
2023-04-16T03:22:33.387Z,9.35
2023-04-16T03:24:38.500Z,9.36
2023-04-16T03:26:43.183Z,9.41
2023-04-16T03:28:48.787Z,9.42
2023-04-16T03:30:55.390Z,9.39
2023-04-16T03:33:02.949Z,9.41
2023-04-16T03:35:07.978Z,9.45
2023-04-16T03:37:14.128Z,9.41
2023-04-16T03:39:18.907Z,9.41
2023-04-16T03:41:24.309Z,9.42
2023-04-16T03:43:28.967Z,9.44
2023-04-16T03:45:33.900Z,9.46
2023-04-16T03:47:38.566Z,9.56
2023-04-16T03:49:45.979Z,9.64
2023-04-16T03:51:50.815Z,9.70
2023-04-16T03:53:55.463Z,9.77
2023-04-16T03:56:01.002Z,9.82
2023-04-16T03:58:06.024Z,9.83
2023-04-16T04:00:11.798Z,9.79
2023-04-16T04:02:19.383Z,9.70
2023-04-16T04:04:24.280Z,9.71
2023-04-16T04:06:32.122Z,9.69
2023-04-16T04:08:36.814Z,9.66
2023-04-16T04:10:46.526Z,9.63
2023-04-16T04:12:52.654Z,9.59
2023-04-16T04:14:58.625Z,9.63
2023-04-16T04:17:05.045Z,9.63
2023-04-16T04:19:09.963Z,9.68
2023-04-16T04:21:15.164Z,9.75
2023-04-16T04:23:22.431Z,9.80
2023-04-16T04:25:28.002Z,9.84
2023-04-16T04:27:32.605Z,9.91
2023-04-16T04:29:37.322Z,9.90
2023-04-16T04:31:42.129Z,9.96
2023-04-16T04:33:46.784Z,10.02
2023-04-16T04:35:51.508Z,10.05
2023-04-16T04:37:56.398Z,10.10
2023-04-16T04:40:03.806Z,10.13
2023-04-16T04:42:08.471Z,10.13
2023-04-16T04:44:13.413Z,10.17
2023-04-16T04:46:19.337Z,10.17
2023-04-16T04:48:26.926Z,10.17
2023-04-16T04:50:32.544Z,10.15
2023-04-16T04:52:37.293Z,10.12
2023-04-16T04:54:43.030Z,10.12
2023-04-16T04:56:51.343Z,10.14
2023-04-16T04:58:56.625Z,10.16
2023-04-16T05:01:01.726Z,10.22
2023-04-16T05:03:07.984Z,10.26
2023-04-16T05:05:12.912Z,10.27
2023-04-16T05:07:17.602Z,10.29
2023-04-16T05:09:22.422Z,10.33
2023-04-16T05:11:27.091Z,10.36
2023-04-16T05:13:34.496Z,10.40
2023-04-16T05:15:39.131Z,10.42
2023-04-16T05:17:43.864Z,10.41
2023-04-16T05:19:48.586Z,10.39
2023-04-16T05:21:53.221Z,10.35
2023-04-16T05:23:57.766Z,10.37
2023-04-16T05:26:02.545Z,10.29
2023-04-16T05:28:07.476Z,10.31
2023-04-16T05:30:15.267Z,10.32
2023-04-16T05:32:19.936Z,10.35
2023-04-16T05:34:24.587Z,10.38
2023-04-16T05:36:29.416Z,10.40
2023-04-16T05:38:34.163Z,10.42
2023-04-16T05:40:39.152Z,10.42
2023-04-16T05:42:43.776Z,10.40
2023-04-16T05:44:48.508Z,10.42
2023-04-16T05:46:56.055Z,10.43
2023-04-16T05:49:00.850Z,10.48
2023-04-16T05:51:05.574Z,10.51
2023-04-16T05:53:11.155Z,10.52
2023-04-16T05:55:15.890Z,10.51
2023-04-16T05:57:20.626Z,10.44
2023-04-16T05:59:25.341Z,10.38
2023-04-16T06:01:30.878Z,10.38
2023-04-16T06:03:39.279Z,10.41
2023-04-16T06:05:44.126Z,10.44
2023-04-16T06:07:48.764Z,10.45
2023-04-16T06:09:53.428Z,10.43
2023-04-16T06:11:58.181Z,10.41
2023-04-16T06:14:02.834Z,10.39
2023-04-16T06:16:08.048Z,10.43
2023-04-16T06:18:12.749Z,10.49
2023-04-16T06:20:20.038Z,10.49
2023-04-16T06:22:24.736Z,10.51
2023-04-16T06:24:32.233Z,10.52
2023-04-16T06:26:36.791Z,10.54
2023-04-16T06:28:41.581Z,10.58
2023-04-16T06:30:46.295Z,10.65
2023-04-16T06:32:51.125Z,10.68
2023-04-16T06:34:56.508Z,10.67
2023-04-16T06:37:03.715Z,10.63
2023-04-16T06:39:08.709Z,10.63
2023-04-16T06:41:13.788Z,10.64
2023-04-16T06:43:18.557Z,10.65
2023-04-16T06:45:23.225Z,10.63
2023-04-16T06:47:27.977Z,10.63
2023-04-16T06:49:32.677Z,10.65
2023-04-16T06:51:37.562Z,10.71
2023-04-16T06:53:45.349Z,10.71
2023-04-16T06:55:49.954Z,10.73
2023-04-16T06:57:54.644Z,10.65
2023-04-16T06:59:59.270Z,10.64
2023-04-16T07:02:03.993Z,10.64
2023-04-16T07:04:08.944Z,10.60
2023-04-16T07:06:13.775Z,10.60
2023-04-16T07:08:18.401Z,10.64
2023-04-16T07:10:25.854Z,10.65
2023-04-16T07:12:31.693Z,10.68
2023-04-16T07:14:36.367Z,10.72
2023-04-16T07:16:40.996Z,10.74
2023-04-16T07:18:45.755Z,10.75
2023-04-16T07:20:50.714Z,10.76
2023-04-16T07:22:55.520Z,10.75
2023-04-16T07:25:00.200Z,10.77
2023-04-16T07:27:07.495Z,10.78
2023-04-16T07:29:12.430Z,10.80
2023-04-16T07:31:17.445Z,10.87
2023-04-16T07:33:22.185Z,10.91
2023-04-16T07:35:26.831Z,10.95
2023-04-16T07:37:32.737Z,11.05
2023-04-16T07:39:37.461Z,11.07
2023-04-16T07:41:42.864Z,11.15
2023-04-16T07:43:53.411Z,11.16
2023-04-16T07:45:58.222Z,11.12
2023-04-16T07:48:03.007Z,11.22
2023-04-16T07:50:08.254Z,11.36
2023-04-16T07:52:13.064Z,11.49
2023-04-16T07:54:17.868Z,11.61
2023-04-16T07:56:22.593Z,11.73
2023-04-16T07:58:27.182Z,11.83
2023-04-16T08:00:34.497Z,11.90
2023-04-16T08:02:39.421Z,11.96
2023-04-16T08:04:44.270Z,11.97
2023-04-16T08:06:49.246Z,12.00
2023-04-16T08:08:53.887Z,11.96
2023-04-16T08:10:59.348Z,11.98
2023-04-16T08:13:04.148Z,11.96
2023-04-16T08:15:09.626Z,11.97
2023-04-16T08:17:17.302Z,11.99
2023-04-16T08:19:22.180Z,12.05
2023-04-16T08:21:28.013Z,12.04
2023-04-16T08:23:32.682Z,12.10
2023-04-16T08:25:38.645Z,12.17
2023-04-16T08:27:43.563Z,12.25
2023-04-16T08:29:48.234Z,12.36
2023-04-16T08:31:52.953Z,12.34
2023-04-16T08:34:00.345Z,12.32
2023-04-16T08:36:05.031Z,12.35
2023-04-16T08:38:10.982Z,12.43
2023-04-16T08:40:15.720Z,12.36
2023-04-16T08:42:24.594Z,12.38
2023-04-16T08:44:30.199Z,12.41
2023-04-16T08:46:36.125Z,12.49
2023-04-16T08:48:41.593Z,12.60
2023-04-16T08:50:49.603Z,12.67
2023-04-16T08:52:59.580Z,12.72
2023-04-16T08:55:07.054Z,12.76
2023-04-16T08:57:13.483Z,12.67
2023-04-16T08:59:18.237Z,12.75
2023-04-16T09:01:23.593Z,12.69
2023-04-16T09:03:28.351Z,12.65
2023-04-16T09:05:33.893Z,12.73
2023-04-16T09:07:41.683Z,12.81
2023-04-16T09:09:46.920Z,12.88
2023-04-16T09:11:53.728Z,12.78
2023-04-16T09:13:58.471Z,12.86
2023-04-16T09:16:03.404Z,12.95
2023-04-16T09:18:09.000Z,12.95
2023-04-16T09:20:13.988Z,12.95
2023-04-16T09:22:18.932Z,12.94
2023-04-16T09:24:26.734Z,12.87
2023-04-16T09:26:31.426Z,12.89
2023-04-16T09:28:42.778Z,12.89
2023-04-16T09:30:47.386Z,12.82
2023-04-16T09:32:52.485Z,12.78
2023-04-16T09:34:58.085Z,12.80
2023-04-16T09:37:17.122Z,12.76
2023-04-16T09:39:22.947Z,12.77
2023-04-16T09:41:31.066Z,12.78
2023-04-16T09:43:35.837Z,12.80
2023-04-16T09:45:51.374Z,12.82
2023-04-16T09:47:56.080Z,12.80
2023-04-16T09:50:01.834Z,12.84
2023-04-16T09:52:12.124Z,12.82
2023-04-16T09:54:16.847Z,12.95
2023-04-16T09:56:21.549Z,13.07
2023-04-16T09:58:29.294Z,13.11
2023-04-16T10:00:34.178Z,13.12
2023-04-16T10:02:40.866Z,13.18
2023-04-16T10:04:53.225Z,13.30
2023-04-16T10:07:09.234Z,13.24
2023-04-16T10:09:14.510Z,13.17
2023-04-16T10:11:19.750Z,13.27
2023-04-16T10:13:28.045Z,13.25
2023-04-16T10:15:35.930Z,13.11
2023-04-16T10:17:41.541Z,13.22
2023-04-16T10:19:46.701Z,13.11
2023-04-16T10:21:51.743Z,12.99
2023-04-16T10:23:56.608Z,12.91
2023-04-16T10:26:02.024Z,12.97
2023-04-16T10:28:06.986Z,13.12
2023-04-16T10:30:12.428Z,13.27
2023-04-16T10:32:22.016Z,13.38
2023-04-16T10:34:27.263Z,13.49
2023-04-16T10:36:32.098Z,13.65
2023-04-16T10:38:36.759Z,13.76
2023-04-16T10:40:41.466Z,13.79
2023-04-16T10:42:56.317Z,13.87
2023-04-16T10:45:02.616Z,13.92
2023-04-16T10:47:13.218Z,13.82
2023-04-16T10:49:21.881Z,13.81
2023-04-16T10:51:31.706Z,13.69
2023-04-16T10:53:36.825Z,13.78
2023-04-16T10:55:41.566Z,13.86
2023-04-16T10:57:46.298Z,13.79
2023-04-16T10:59:51.973Z,13.70
2023-04-16T11:01:57.821Z,13.65
2023-04-16T11:04:04.699Z,13.66
2023-04-16T11:06:19.572Z,13.70
2023-04-16T11:08:25.313Z,13.76
2023-04-16T11:10:31.212Z,13.76
2023-04-16T11:12:38.297Z,13.70
2023-04-16T11:14:43.242Z,13.69
2023-04-16T11:16:48.291Z,13.57
2023-04-16T11:18:54.484Z,13.51
2023-04-16T11:21:00.358Z,13.32
2023-04-16T11:23:13.684Z,13.09
2023-04-16T11:25:22.211Z,13.05
2023-04-16T11:27:27.520Z,13.12
2023-04-16T11:29:32.163Z,13.10
2023-04-16T11:31:37.154Z,13.08
2023-04-16T11:33:42.041Z,13.09
2023-04-16T11:35:46.873Z,13.11
2023-04-16T11:37:51.660Z,12.90
2023-04-16T11:40:00.150Z,12.98
2023-04-16T11:42:04.828Z,13.03
2023-04-16T11:44:19.700Z,13.09
2023-04-16T11:46:27.856Z,13.07
2023-04-16T11:48:47.540Z,13.12
2023-04-16T11:51:00.040Z,13.09
2023-04-16T11:53:07.361Z,13.28
2023-04-16T11:55:14.895Z,13.22
2023-04-16T11:57:26.620Z,13.15
2023-04-16T11:59:31.292Z,13.17
2023-04-16T12:01:36.751Z,13.32
2023-04-16T12:03:44.520Z,13.38
2023-04-16T12:05:49.378Z,13.61
2023-04-16T12:07:54.018Z,13.77
2023-04-16T12:10:08.728Z,13.85
2023-04-16T12:12:31.390Z,13.84
2023-04-16T12:14:39.322Z,13.95
2023-04-16T12:16:44.142Z,13.96
2023-04-16T12:19:04.613Z,13.81
2023-04-16T12:21:09.399Z,13.75
2023-04-16T12:23:14.449Z,13.56
2023-04-16T12:25:19.868Z,13.38
2023-04-16T12:27:28.887Z,13.40
2023-04-16T12:29:33.550Z,13.40
2023-04-16T12:31:44.057Z,13.49
2023-04-16T12:34:06.084Z,13.53
2023-04-16T12:36:20.080Z,13.55
2023-04-16T12:38:25.744Z,13.52
2023-04-16T12:40:30.727Z,13.46
2023-04-16T12:42:36.261Z,13.49
2023-04-16T12:44:40.982Z,13.51
2023-04-16T12:46:48.602Z,13.43
2023-04-16T12:48:53.379Z,13.30
2023-04-16T12:50:58.008Z,13.29
2023-04-16T12:53:03.041Z,13.34
2023-04-16T12:55:08.042Z,13.44
2023-04-16T12:57:12.798Z,13.48
2023-04-16T12:59:18.026Z,13.49
2023-04-16T13:01:23.093Z,13.36
2023-04-16T13:03:31.149Z,13.40
2023-04-16T13:05:36.259Z,13.44
2023-04-16T13:07:41.620Z,13.50
2023-04-16T13:09:46.383Z,13.60
2023-04-16T13:11:51.248Z,13.63
2023-04-16T13:13:56.252Z,13.60
2023-04-16T13:16:01.069Z,13.58
2023-04-16T13:18:06.317Z,13.73
2023-04-16T13:20:14.539Z,13.88
2023-04-16T13:22:19.521Z,13.92
2023-04-16T13:24:24.398Z,13.90
2023-04-16T13:26:29.598Z,14.01
2023-04-16T13:28:34.861Z,14.22
2023-04-16T13:30:39.992Z,14.42
2023-04-16T13:32:44.723Z,14.55
2023-04-16T13:34:49.515Z,14.59
2023-04-16T13:36:56.972Z,14.82
2023-04-16T13:39:03.167Z,14.84
2023-04-16T13:41:08.172Z,14.92
2023-04-16T13:43:13.952Z,14.86
2023-04-16T13:45:20.528Z,14.77
2023-04-16T13:47:25.412Z,14.87
2023-04-16T13:49:31.769Z,14.86
2023-04-16T13:51:40.878Z,14.89
2023-04-16T13:53:48.634Z,14.74
2023-04-16T13:55:53.508Z,14.70
2023-04-16T13:57:58.438Z,14.66
2023-04-16T14:00:03.197Z,14.58
2023-04-16T14:02:09.520Z,14.30
2023-04-16T14:04:14.238Z,14.25
2023-04-16T14:06:18.922Z,14.31
2023-04-16T14:08:24.025Z,14.21
2023-04-16T14:10:31.298Z,14.24
2023-04-16T14:12:37.220Z,14.13
2023-04-16T14:14:42.018Z,14.12
2023-04-16T14:16:46.874Z,14.19
2023-04-16T14:18:52.183Z,14.10
2023-04-16T14:20:56.912Z,14.15
2023-04-16T14:23:01.655Z,14.24
2023-04-16T14:25:06.673Z,14.22
2023-04-16T14:27:14.084Z,14.17
2023-04-16T14:29:18.825Z,14.10
2023-04-16T14:31:23.723Z,14.24
2023-04-16T14:33:28.490Z,14.40
2023-04-16T14:35:33.129Z,14.45
2023-04-16T14:37:39.121Z,14.47
2023-04-16T14:39:43.743Z,14.66
2023-04-16T14:41:48.445Z,14.75
2023-04-16T14:43:56.121Z,14.76
2023-04-16T14:46:01.149Z,14.71
2023-04-16T14:48:06.546Z,14.71
2023-04-16T14:50:11.830Z,14.71
2023-04-16T14:52:16.605Z,14.67
2023-04-16T14:54:21.863Z,14.66
2023-04-16T14:56:26.573Z,14.72
2023-04-16T14:58:31.649Z,14.77
2023-04-16T15:00:40.301Z,14.70
2023-04-16T15:02:45.078Z,14.65
2023-04-16T15:04:49.951Z,14.54
2023-04-16T15:06:55.629Z,14.46
2023-04-16T15:09:00.430Z,14.62
2023-04-16T15:11:05.127Z,14.61
2023-04-16T15:13:12.721Z,14.72
2023-04-16T15:15:17.855Z,14.93
2023-04-16T15:17:25.148Z,15.16
2023-04-16T15:19:29.922Z,15.31
2023-04-16T15:21:34.695Z,15.34
2023-04-16T15:23:39.475Z,15.26
2023-04-16T15:25:44.190Z,15.20
2023-04-16T15:27:48.924Z,15.08
2023-04-16T15:29:54.259Z,15.06
2023-04-16T15:31:59.119Z,15.05
2023-04-16T15:34:06.488Z,14.83
2023-04-16T15:36:11.575Z,14.58
2023-04-16T15:38:16.384Z,14.55
2023-04-16T15:40:21.495Z,14.59
2023-04-16T15:42:26.732Z,14.51
2023-04-16T15:44:31.716Z,14.48
2023-04-16T15:46:36.368Z,14.46
2023-04-16T15:48:41.188Z,14.54
2023-04-16T15:50:48.788Z,14.47
2023-04-16T15:52:53.533Z,14.42
2023-04-16T15:54:58.230Z,14.43
2023-04-16T15:57:02.931Z,14.31
2023-04-16T15:59:08.341Z,14.25
2023-04-16T16:01:13.595Z,14.24
2023-04-16T16:03:18.488Z,14.26
2023-04-16T16:05:23.364Z,13.90
2023-04-16T16:07:30.838Z,13.81
2023-04-16T16:09:35.712Z,13.76
2023-04-16T16:11:41.646Z,13.67
2023-04-16T16:13:46.429Z,13.71
2023-04-16T16:15:51.551Z,13.68
2023-04-16T16:17:58.100Z,13.60
2023-04-16T16:20:03.872Z,13.58
2023-04-16T16:22:10.643Z,13.55
2023-04-16T16:24:18.648Z,13.56
2023-04-16T16:26:23.516Z,13.56
2023-04-16T16:28:28.365Z,13.46
2023-04-16T16:30:33.196Z,13.34
2023-04-16T16:32:41.168Z,13.36
2023-04-16T16:34:46.051Z,13.17
2023-04-16T16:36:51.008Z,13.17
2023-04-16T16:38:58.723Z,12.96
2023-04-16T16:41:06.290Z,12.93
2023-04-16T16:43:10.997Z,12.76
2023-04-16T16:45:16.070Z,12.58
2023-04-16T16:47:21.092Z,12.54
2023-04-16T16:49:25.791Z,12.66
2023-04-16T16:51:30.849Z,12.73
2023-04-16T16:53:35.512Z,12.72
2023-04-16T16:55:40.388Z,12.60
2023-04-16T16:57:47.852Z,12.73
2023-04-16T16:59:52.697Z,12.77
2023-04-16T17:01:57.531Z,12.78
2023-04-16T17:04:02.415Z,12.69
2023-04-16T17:06:07.583Z,12.72
2023-04-16T17:08:12.244Z,12.78
2023-04-16T17:10:20.652Z,12.72
2023-04-16T17:12:26.324Z,12.74
2023-04-16T17:14:34.803Z,12.68
2023-04-16T17:16:39.543Z,12.63
2023-04-16T17:18:44.454Z,12.52
2023-04-16T17:20:49.231Z,12.55
2023-04-16T17:22:54.114Z,12.57
2023-04-16T17:24:58.889Z,12.52
2023-04-16T17:27:04.286Z,12.56
2023-04-16T17:29:09.069Z,12.52
2023-04-16T17:31:16.631Z,12.39
2023-04-16T17:33:24.003Z,12.36
2023-04-16T17:35:28.683Z,12.31
2023-04-16T17:37:33.430Z,12.11
2023-04-16T17:39:38.159Z,12.18
2023-04-16T17:41:42.770Z,12.12
2023-04-16T17:43:50.452Z,12.09
2023-04-16T17:45:55.131Z,11.92
2023-04-16T17:48:03.044Z,11.99
2023-04-16T17:50:08.643Z,12.06
2023-04-16T17:52:14.328Z,12.08
2023-04-16T17:54:18.978Z,12.12
2023-04-16T17:56:24.684Z,11.99
2023-04-16T17:58:33.103Z,12.01
2023-04-16T18:00:37.700Z,11.84
2023-04-16T18:05:02.996Z,11.95
2023-04-16T18:07:08.310Z,11.91
2023-04-16T18:09:14.478Z,11.97
2023-04-16T18:11:19.646Z,11.98
2023-04-16T18:13:24.392Z,11.94
2023-04-16T18:15:29.392Z,11.84
2023-04-16T18:17:34.517Z,11.78
2023-04-16T18:19:40.777Z,11.66
2023-04-16T18:21:48.598Z,11.68
2023-04-16T18:23:53.459Z,11.72
2023-04-16T18:25:58.902Z,11.73
2023-04-16T18:28:04.029Z,11.69
2023-04-16T18:30:20.153Z,11.73
2023-04-16T18:32:31.054Z,11.68
2023-04-16T18:34:36.482Z,11.74
2023-04-16T18:36:41.387Z,11.80
2023-04-16T18:39:00.099Z,11.87
2023-04-16T18:41:06.502Z,11.90
2023-04-16T18:43:11.432Z,11.95
2023-04-16T18:45:21.577Z,11.86
2023-04-16T18:47:27.232Z,11.87
2023-04-16T18:49:32.141Z,11.84
2023-04-16T18:51:37.446Z,11.92
2023-04-16T18:53:44.506Z,11.97
2023-04-16T18:55:55.803Z,12.01
2023-04-16T18:58:00.698Z,11.96
2023-04-16T19:00:09.581Z,11.92
2023-04-16T19:02:14.981Z,11.93
2023-04-16T19:04:20.066Z,11.91
2023-04-16T19:06:25.165Z,11.94
2023-04-16T19:08:30.052Z,11.91
2023-04-16T19:10:35.049Z,11.90
2023-04-16T19:12:42.667Z,11.93
2023-04-16T19:14:47.670Z,11.81
2023-04-16T19:16:52.546Z,11.73
2023-04-16T19:18:57.591Z,11.77
2023-04-16T19:21:02.710Z,11.70
2023-04-16T19:23:09.294Z,11.65
2023-04-16T19:25:14.358Z,11.58
2023-04-16T19:27:19.323Z,11.51
2023-04-16T19:29:28.063Z,11.53
2023-04-16T19:31:33.212Z,11.44
2023-04-16T19:33:38.146Z,11.31
2023-04-16T19:35:48.702Z,11.30
2023-04-16T19:37:56.414Z,11.28
2023-04-16T19:40:02.279Z,11.21
2023-04-16T19:42:07.306Z,11.15
2023-04-16T19:44:12.272Z,11.09
2023-04-16T19:46:19.850Z,11.10
2023-04-16T19:48:25.247Z,11.12
2023-04-16T19:50:29.891Z,11.14
2023-04-16T19:52:38.867Z,11.01
2023-04-16T19:54:43.965Z,11.06
2023-04-16T19:56:49.498Z,11.11
2023-04-16T19:58:54.497Z,11.16
2023-04-16T20:00:59.484Z,11.19
2023-04-16T20:03:07.918Z,11.04
2023-04-16T20:05:13.157Z,11.03
2023-04-16T20:07:18.104Z,11.08
2023-04-16T20:09:23.121Z,11.16
2023-04-16T20:11:28.208Z,11.18
2023-04-16T20:13:33.442Z,11.03
2023-04-16T20:15:38.331Z,10.94
2023-04-16T20:17:43.273Z,11.00
2023-04-16T20:19:51.377Z,11.09
2023-04-16T20:21:56.353Z,11.15
2023-04-16T20:24:01.869Z,11.23
2023-04-16T20:26:07.592Z,11.16
2023-04-16T20:28:12.660Z,11.23
2023-04-16T20:30:17.883Z,11.20
2023-04-16T20:32:25.994Z,11.22
2023-04-16T20:34:32.120Z,11.24
2023-04-16T20:36:39.606Z,11.15
2023-04-16T20:38:45.248Z,11.12
2023-04-16T20:40:58.218Z,11.14
2023-04-16T20:43:03.272Z,11.12
2023-04-16T20:45:09.496Z,11.13
2023-04-16T20:47:15.500Z,11.12
2023-04-16T20:49:20.516Z,11.14
2023-04-16T20:51:27.831Z,11.20
2023-04-16T20:53:37.112Z,11.20
2023-04-16T20:55:42.483Z,11.20
2023-04-16T20:57:47.355Z,11.16
2023-04-16T20:59:52.610Z,11.21
2023-04-16T21:01:57.364Z,11.14
2023-04-16T21:04:03.194Z,11.16
2023-04-16T21:06:08.486Z,11.20
2023-04-16T21:08:13.100Z,11.21
2023-04-16T21:10:21.130Z,11.22
2023-04-16T21:12:26.340Z,11.18
2023-04-16T21:14:31.294Z,11.20
2023-04-16T21:16:36.426Z,11.19
2023-04-16T21:18:41.434Z,11.20
2023-04-16T21:20:46.379Z,11.20
2023-04-16T21:22:53.573Z,11.23
2023-04-16T21:24:58.468Z,11.21
2023-04-16T21:27:06.090Z,11.16
2023-04-16T21:29:11.328Z,11.14
2023-04-16T21:31:16.654Z,11.14
2023-04-16T21:33:21.460Z,11.05
2023-04-16T21:35:26.322Z,11.08
2023-04-16T21:37:31.364Z,11.07
2023-04-16T21:39:36.246Z,11.08
2023-04-16T21:41:41.278Z,11.04
2023-04-16T21:43:48.795Z,11.04
2023-04-16T21:45:55.285Z,11.00
2023-04-16T21:48:00.819Z,11.00
2023-04-16T21:50:05.957Z,11.00
2023-04-16T21:52:18.506Z,11.01
2023-04-16T21:54:23.594Z,11.01
2023-04-16T21:56:28.756Z,10.97
2023-04-16T21:58:33.409Z,10.95
2023-04-16T22:00:41.005Z,10.96
2023-04-16T22:02:46.218Z,10.95
2023-04-16T22:04:50.938Z,10.98
2023-04-16T22:06:57.390Z,10.92
2023-04-16T22:09:02.462Z,10.89
2023-04-16T22:11:07.433Z,10.93
2023-04-16T22:13:12.867Z,10.94
2023-04-16T22:15:17.839Z,10.93
2023-04-16T22:17:27.791Z,10.91
2023-04-16T22:19:34.992Z,10.94
2023-04-16T22:21:39.879Z,10.91
2023-04-16T22:23:45.055Z,10.88
2023-04-16T22:25:49.971Z,10.82
2023-04-16T22:27:55.719Z,10.83
2023-04-16T22:30:00.605Z,10.87
2023-04-16T22:32:05.558Z,10.83
2023-04-16T22:34:13.035Z,10.79
2023-04-16T22:36:17.952Z,10.88
2023-04-16T22:38:22.828Z,10.91
2023-04-16T22:40:27.777Z,10.92
2023-04-16T22:42:32.686Z,10.93
2023-04-16T22:44:39.141Z,10.94
2023-04-16T22:46:44.029Z,10.84
2023-04-16T22:48:49.136Z,10.83
2023-04-16T22:50:58.953Z,10.81
2023-04-16T22:53:04.018Z,10.82
2023-04-16T22:55:09.892Z,10.70
2023-04-16T22:57:14.818Z,10.67
2023-04-16T22:59:19.626Z,10.62
2023-04-16T23:01:24.764Z,10.65
2023-04-16T23:03:29.755Z,10.73
2023-04-16T23:05:34.811Z,10.65
2023-04-16T23:07:42.278Z,10.73
2023-04-16T23:09:47.181Z,10.76
2023-04-16T23:11:52.014Z,10.71
2023-04-16T23:13:56.961Z,10.74
2023-04-16T23:16:02.348Z,10.77
2023-04-16T23:18:07.684Z,10.79
2023-04-16T23:20:14.432Z,10.83
2023-04-16T23:22:19.370Z,10.80
2023-04-16T23:24:26.858Z,10.78
2023-04-16T23:26:33.035Z,10.78
2023-04-16T23:28:38.154Z,10.70
2023-04-16T23:30:43.098Z,10.73
2023-04-16T23:32:48.146Z,10.58
2023-04-16T23:34:53.191Z,10.63
2023-04-16T23:36:58.046Z,10.71
2023-04-16T23:39:02.964Z,10.75
2023-04-16T23:41:10.526Z,10.76
2023-04-16T23:43:15.558Z,10.81
2023-04-16T23:45:20.476Z,10.84
2023-04-16T23:47:25.717Z,10.83
2023-04-16T23:49:31.001Z,10.85
2023-04-16T23:51:35.906Z,10.86
2023-04-16T23:53:41.009Z,10.83
2023-04-16T23:55:45.952Z,10.81
2023-04-16T23:57:53.399Z,10.73
2023-04-16T23:59:58.305Z,10.79
